createdAt,value
2018-06-13T00:01:37.697Z,16.20
2018-06-13T00:04:06.335Z,15.90
2018-06-13T00:06:35.419Z,15.90
2018-06-13T00:09:05.940Z,16.00
2018-06-13T00:11:34.440Z,16.10
2018-06-13T00:14:03.469Z,16.00
2018-06-13T00:16:31.933Z,16.10
2018-06-13T00:19:03.812Z,16.10
2018-06-13T00:21:32.572Z,16.10
2018-06-13T00:24:01.262Z,16.20
2018-06-13T00:26:29.780Z,16.00
2018-06-13T00:28:58.503Z,15.90
2018-06-13T00:31:26.942Z,16.00
2018-06-13T00:33:55.745Z,16.00
2018-06-13T00:36:24.255Z,15.80
2018-06-13T00:38:52.710Z,15.70
2018-06-13T00:41:21.238Z,15.80
2018-06-13T00:43:49.963Z,15.70
2018-06-13T00:46:18.412Z,15.80
2018-06-13T00:48:47.038Z,15.70
2018-06-13T00:51:15.545Z,15.60
2018-06-13T00:53:44.006Z,15.80
2018-06-13T00:56:23.845Z,15.70
2018-06-13T00:58:52.326Z,15.70
2018-06-13T01:01:20.912Z,15.70
2018-06-13T01:03:49.421Z,15.60
2018-06-13T01:06:18.012Z,15.70
2018-06-13T01:08:46.473Z,15.50
2018-06-13T01:11:15.026Z,15.60
2018-06-13T01:13:43.524Z,15.60
2018-06-13T01:16:12.021Z,15.50
2018-06-13T01:18:40.496Z,15.50
2018-06-13T01:21:09.025Z,15.50
2018-06-13T01:23:37.473Z,15.50
2018-06-13T01:26:05.978Z,15.50
2018-06-13T01:28:35.584Z,15.50
2018-06-13T01:31:05.022Z,15.50
2018-06-13T01:33:33.478Z,15.50
2018-06-13T01:36:02.047Z,15.30
2018-06-13T01:38:30.646Z,15.40
2018-06-13T01:40:59.189Z,15.30
2018-06-13T01:43:27.635Z,15.30
2018-06-13T01:45:56.226Z,15.30
2018-06-13T01:48:24.698Z,15.30
2018-06-13T01:50:55.838Z,15.20
2018-06-13T01:53:24.428Z,15.30
2018-06-13T01:55:53.098Z,15.30
2018-06-13T01:58:21.552Z,15.20
2018-06-13T02:00:50.263Z,15.10
2018-06-13T02:03:18.634Z,15.10
2018-06-13T02:05:47.120Z,15.10
2018-06-13T02:08:15.583Z,15.10
2018-06-13T02:10:44.188Z,15.10
2018-06-13T02:13:12.626Z,14.90
2018-06-13T02:15:41.184Z,14.80
2018-06-13T02:18:09.683Z,14.90
2018-06-13T02:20:38.184Z,14.90
2018-06-13T02:23:06.648Z,14.90
2018-06-13T02:25:35.589Z,14.90
2018-06-13T02:28:05.005Z,14.90
2018-06-13T02:30:34.399Z,14.90
2018-06-13T02:33:03.380Z,14.90
2018-06-13T02:35:31.873Z,14.90
2018-06-13T02:38:00.318Z,14.90
2018-06-13T02:40:28.974Z,14.80
2018-06-13T02:42:57.668Z,14.80
2018-06-13T02:45:26.240Z,14.80
2018-06-13T02:47:54.683Z,14.60
2018-06-13T02:50:24.314Z,14.60
2018-06-13T02:52:53.171Z,14.70
2018-06-13T02:55:21.737Z,14.80
2018-06-13T02:57:50.258Z,14.70
2018-06-13T03:00:19.800Z,14.70
2018-06-13T03:02:48.307Z,14.70
2018-06-13T03:05:16.942Z,14.60
2018-06-13T03:07:45.409Z,14.60
2018-06-13T03:10:14.959Z,14.50
2018-06-13T03:12:43.456Z,14.50
2018-06-13T03:15:12.074Z,14.50
2018-06-13T03:17:40.569Z,14.50
2018-06-13T03:20:10.196Z,14.50
2018-06-13T03:22:38.625Z,14.40
2018-06-13T03:25:07.215Z,14.30
2018-06-13T03:27:35.767Z,14.20
2018-06-13T03:30:04.674Z,14.20
2018-06-13T03:32:33.809Z,14.20
2018-06-13T03:35:03.096Z,14.30
2018-06-13T03:37:31.631Z,14.30
2018-06-13T03:40:00.165Z,14.20
2018-06-13T03:42:28.670Z,14.20
2018-06-13T03:44:57.248Z,14.20
2018-06-13T03:47:25.751Z,14.20
2018-06-13T03:49:54.403Z,14.20
2018-06-13T03:52:22.914Z,14.20
2018-06-13T03:54:51.500Z,14.20
2018-06-13T03:57:20.044Z,14.20
2018-06-13T03:59:48.626Z,14.20
2018-06-13T04:02:16.992Z,14.20
2018-06-13T04:04:45.568Z,14.30
2018-06-13T04:07:14.987Z,14.30
2018-06-13T04:09:43.804Z,14.40
2018-06-13T04:12:12.276Z,14.30
2018-06-13T04:14:40.820Z,14.40
2018-06-13T04:17:09.312Z,14.30
2018-06-13T04:19:37.924Z,14.20
2018-06-13T04:22:06.460Z,14.30
2018-06-13T04:24:35.683Z,14.20
2018-06-13T04:27:04.841Z,14.10
2018-06-13T04:29:33.572Z,14.00
2018-06-13T04:32:02.167Z,14.10
2018-06-13T04:34:30.651Z,14.20
2018-06-13T04:36:59.302Z,14.20
2018-06-13T04:39:27.776Z,14.20
2018-06-13T04:41:56.276Z,14.20
2018-06-13T04:44:25.431Z,14.10
2018-06-13T04:46:53.940Z,14.20
2018-06-13T04:49:22.515Z,14.20
2018-06-13T04:51:51.013Z,14.10
2018-06-13T04:54:19.765Z,14.20
2018-06-13T04:56:48.176Z,14.20
2018-06-13T04:59:16.659Z,14.20
2018-06-13T05:01:45.205Z,14.30
2018-06-13T05:04:13.827Z,14.20
2018-06-13T05:06:42.237Z,14.20
2018-06-13T05:09:10.872Z,14.20
2018-06-13T05:11:39.380Z,14.10
2018-06-13T05:14:08.066Z,14.00
2018-06-13T05:16:36.519Z,14.00
2018-06-13T05:19:05.733Z,14.00
2018-06-13T05:21:34.813Z,13.90
2018-06-13T05:24:03.600Z,14.00
2018-06-13T05:26:32.124Z,13.90
2018-06-13T05:29:00.639Z,13.90
2018-06-13T05:31:29.107Z,13.90
2018-06-13T05:33:57.732Z,14.00
2018-06-13T05:36:26.208Z,14.00
2018-06-13T05:38:54.695Z,13.90
2018-06-13T05:41:23.111Z,13.90
2018-06-13T05:43:51.686Z,13.90
2018-06-13T05:46:20.307Z,13.80
2018-06-13T05:51:17.125Z,13.90
2018-06-13T05:53:45.684Z,14.00
2018-06-13T05:56:14.136Z,14.00
2018-06-13T05:58:42.655Z,13.80
2018-06-13T06:01:11.136Z,13.80
2018-06-13T06:03:39.897Z,13.80
2018-06-13T06:06:08.413Z,13.80
2018-06-13T06:08:36.888Z,13.80
2018-06-13T06:11:05.719Z,13.80
2018-06-13T06:13:34.814Z,13.70
2018-06-13T06:16:03.707Z,13.80
2018-06-13T06:18:32.293Z,13.70
2018-06-13T06:21:00.801Z,13.70
2018-06-13T06:23:29.566Z,13.60
2018-06-13T06:25:58.151Z,13.60
2018-06-13T06:28:26.725Z,13.70
2018-06-13T06:30:55.604Z,13.80
2018-06-13T06:33:24.018Z,13.80
2018-06-13T06:35:52.521Z,13.80
2018-06-13T06:38:21.113Z,13.80
2018-06-13T06:45:36.160Z,13.60
2018-06-13T06:48:05.367Z,13.70
2018-06-13T06:50:35.424Z,13.70
2018-06-13T06:53:04.633Z,13.70
2018-06-13T06:55:33.616Z,13.70
2018-06-13T06:58:02.178Z,13.80
2018-06-13T07:00:31.654Z,13.70
2018-06-13T07:03:00.095Z,13.80
2018-06-13T07:05:28.706Z,13.90
2018-06-13T07:07:57.203Z,13.90
2018-06-13T07:10:26.745Z,13.90
2018-06-13T07:12:55.224Z,13.90
2018-06-13T07:15:23.819Z,13.90
2018-06-13T07:17:52.228Z,13.80
2018-06-13T07:20:21.766Z,13.80
2018-06-13T07:22:50.343Z,13.80
2018-06-13T07:25:18.879Z,13.80
2018-06-13T07:27:47.374Z,13.80
2018-06-13T07:30:16.960Z,13.80
2018-06-13T07:32:45.344Z,13.80
2018-06-13T07:35:13.915Z,13.80
2018-06-13T07:37:42.367Z,13.70
2018-06-13T07:40:11.797Z,13.70
2018-06-13T07:42:40.262Z,13.80
2018-06-13T07:45:08.817Z,13.80
2018-06-13T07:47:37.337Z,13.80
2018-06-13T07:50:06.716Z,13.80
2018-06-13T07:52:35.796Z,13.80
2018-06-13T07:55:05.120Z,13.80
2018-06-13T07:57:33.771Z,13.70
2018-06-13T08:00:02.233Z,13.80
2018-06-13T08:02:30.660Z,13.70
2018-06-13T08:04:59.184Z,13.70
2018-06-13T08:07:27.643Z,13.80
2018-06-13T08:09:56.172Z,13.60
2018-06-13T08:12:24.610Z,13.60
2018-06-13T08:14:53.161Z,13.60
2018-06-13T09:39:19.706Z,13.80
2018-06-13T09:41:53.518Z,14.10
2018-06-13T09:46:50.304Z,14.10
2018-06-13T09:49:18.737Z,14.20
2018-06-13T09:51:48.231Z,14.30
2018-06-13T09:54:16.714Z,14.30
2018-06-13T09:56:45.304Z,14.30
2018-06-13T09:59:14.702Z,14.40
2018-06-13T10:01:49.136Z,14.40
2018-06-13T10:04:17.558Z,14.50
2018-06-13T10:06:46.001Z,14.40
2018-06-13T10:09:14.454Z,14.50
2018-06-13T10:11:42.899Z,14.50
2018-06-13T10:14:11.356Z,14.50
2018-06-13T10:16:39.887Z,14.40
2018-06-13T10:19:08.473Z,14.30
2018-06-13T10:21:36.917Z,14.30
2018-06-13T10:24:06.100Z,14.30
2018-06-13T10:26:35.618Z,14.30
2018-06-13T10:29:04.216Z,14.30
2018-06-13T10:31:33.089Z,14.20
2018-06-13T10:34:01.593Z,14.30
2018-06-13T10:36:30.023Z,14.30
2018-06-13T10:38:58.555Z,14.30
2018-06-13T10:41:27.029Z,14.30
2018-06-13T10:43:55.590Z,14.20
2018-06-13T10:46:24.013Z,14.10
2018-06-13T10:48:52.545Z,14.00
2018-06-13T10:51:20.961Z,14.10
2018-06-13T10:53:49.509Z,14.20
2018-06-13T10:56:18.057Z,14.10
2018-06-13T10:58:46.996Z,14.20
2018-06-13T11:01:15.452Z,14.20
2018-06-13T11:03:43.886Z,14.20
2018-06-13T11:06:12.886Z,14.30
2018-06-13T11:08:41.364Z,14.30
2018-06-13T11:11:09.844Z,14.30
2018-06-13T11:13:38.343Z,14.40
2018-06-13T11:16:06.785Z,14.10
2018-06-13T11:18:35.935Z,14.20
2018-06-13T11:21:05.084Z,14.20
2018-06-13T11:23:33.863Z,14.20
2018-06-13T11:26:02.273Z,14.10
2018-06-13T11:28:30.931Z,14.10
2018-06-13T11:30:59.407Z,14.10
2018-06-13T11:33:27.962Z,14.10
2018-06-13T11:35:56.336Z,14.10
2018-06-13T11:38:24.843Z,14.10
2018-06-13T11:40:53.295Z,13.90
2018-06-13T11:43:21.738Z,13.90
2018-06-13T11:45:50.141Z,13.90
2018-06-13T11:48:18.551Z,14.00
2018-06-13T11:50:47.024Z,14.10
2018-06-13T11:53:15.563Z,14.00
2018-06-13T11:55:43.994Z,13.90
2018-06-13T11:58:12.849Z,13.90
2018-06-13T12:00:41.476Z,13.90
2018-06-13T12:03:09.953Z,13.90
2018-06-13T12:05:38.383Z,14.00
2018-06-13T12:08:06.814Z,13.80
2018-06-13T12:10:35.637Z,13.90
2018-06-13T12:13:04.769Z,13.90
2018-06-13T12:15:33.741Z,13.90
2018-06-13T12:18:02.315Z,13.80
2018-06-13T12:20:30.738Z,13.90
2018-06-13T12:22:59.190Z,13.90
2018-06-13T12:25:27.580Z,14.00
2018-06-13T12:27:56.149Z,14.00
2018-06-13T12:30:24.586Z,13.90
2018-06-13T12:32:53.140Z,13.90
2018-06-13T12:35:21.583Z,13.90
2018-06-13T12:37:50.135Z,13.90
2018-06-13T12:40:18.557Z,14.00
2018-06-13T12:42:47.170Z,14.00
2018-06-13T12:45:15.807Z,14.00
2018-06-13T12:47:44.299Z,14.00
2018-06-13T12:50:12.798Z,14.00
2018-06-13T12:52:41.258Z,14.00
2018-06-13T12:55:09.858Z,14.00
2018-06-13T12:57:38.279Z,13.90
2018-06-13T13:00:07.447Z,13.80
2018-06-13T13:02:35.917Z,13.90
2018-06-13T13:05:05.202Z,13.90
2018-06-13T13:07:34.152Z,13.80
2018-06-13T13:10:02.530Z,13.80
2018-06-13T13:15:11.001Z,13.90
2018-06-13T13:20:08.621Z,13.90
2018-06-13T13:22:37.154Z,13.90
2018-06-13T13:25:05.945Z,14.00
2018-06-13T13:27:35.444Z,14.00
2018-06-13T13:30:04.512Z,14.00
2018-06-13T13:32:33.150Z,14.10
2018-06-13T13:35:01.594Z,14.20
2018-06-13T13:37:30.479Z,14.20
2018-06-13T13:39:58.905Z,14.20
2018-06-13T13:42:27.549Z,14.30
2018-06-13T13:44:56.037Z,14.20
2018-06-13T13:47:24.416Z,14.20
2018-06-13T13:49:52.870Z,14.30
2018-06-13T13:52:21.306Z,14.40
2018-06-13T13:54:49.746Z,14.30
2018-06-13T13:57:18.167Z,14.30
2018-06-13T13:59:46.591Z,14.40
2018-06-13T14:02:14.971Z,14.30
2018-06-13T14:04:43.474Z,14.30
2018-06-13T14:07:11.837Z,14.30
2018-06-13T14:09:40.414Z,14.20
2018-06-13T14:12:08.801Z,14.20
2018-06-13T14:14:37.299Z,14.20
2018-06-13T14:17:06.722Z,14.20
2018-06-13T14:19:35.903Z,14.20
2018-06-13T14:22:04.430Z,14.30
2018-06-13T14:24:33.168Z,14.30
2018-06-13T14:27:01.559Z,14.30
2018-06-13T14:29:29.997Z,14.20
2018-06-13T14:31:58.373Z,14.10
2018-06-13T14:34:26.772Z,14.10
2018-06-13T14:36:55.159Z,14.10
2018-06-13T14:39:23.594Z,14.20
2018-06-13T14:41:51.981Z,14.20
2018-06-13T14:44:20.484Z,14.10
2018-06-13T14:46:48.912Z,14.10
2018-06-13T14:49:17.360Z,14.10
2018-06-13T14:51:48.366Z,14.20
2018-06-13T14:54:16.858Z,14.10
2018-06-13T14:56:45.315Z,14.00
2018-06-13T14:59:13.888Z,14.00
2018-06-13T15:01:42.416Z,14.00
2018-06-13T15:04:10.839Z,14.10
2018-06-13T15:06:39.257Z,14.10
2018-06-13T15:09:09.280Z,14.20
2018-06-13T15:11:38.622Z,14.10
2018-06-13T15:14:07.529Z,14.10
2018-06-13T15:16:36.508Z,14.10
2018-06-13T15:19:05.644Z,14.10
2018-06-13T15:21:34.412Z,14.10
2018-06-13T15:24:03.132Z,14.10
2018-06-13T15:26:31.647Z,14.10
2018-06-13T15:29:00.032Z,14.10
2018-06-13T15:31:28.849Z,14.20
2018-06-13T15:33:57.256Z,14.20
2018-06-13T15:36:26.446Z,14.10
2018-06-13T15:38:54.866Z,14.00
2018-06-13T15:41:23.392Z,14.00
2018-06-13T15:43:51.781Z,14.00
2018-06-13T15:46:20.507Z,14.00
2018-06-13T15:48:48.931Z,14.20
2018-06-13T15:51:17.470Z,14.10
2018-06-13T15:53:45.834Z,14.10
2018-06-13T15:56:14.276Z,14.10
2018-06-13T15:58:42.710Z,14.10
2018-06-13T16:01:11.251Z,14.10
2018-06-13T16:03:39.682Z,14.10
2018-06-13T16:06:09.114Z,14.10
2018-06-13T16:08:37.528Z,14.10
2018-06-13T16:11:06.523Z,14.10
2018-06-13T16:13:35.687Z,14.20
2018-06-13T16:16:04.899Z,14.20
2018-06-13T16:18:33.681Z,14.20
2018-06-13T16:21:02.190Z,14.20
2018-06-13T16:23:30.582Z,14.20
2018-06-13T16:25:59.147Z,14.20
2018-06-13T16:28:27.553Z,14.10
2018-06-13T16:30:56.444Z,14.10
2018-06-13T16:33:24.948Z,14.10
2018-06-13T16:35:53.812Z,14.00
2018-06-13T16:38:22.377Z,14.00
2018-06-13T16:40:51.022Z,14.00
2018-06-13T16:43:19.487Z,14.20
2018-06-13T16:45:48.003Z,14.00
2018-06-13T16:48:16.361Z,14.10
2018-06-13T16:50:56.742Z,14.10
2018-06-13T16:53:50.522Z,14.20
2018-06-13T16:56:18.940Z,14.00
2018-06-13T16:58:47.393Z,14.00
2018-06-13T17:01:15.999Z,14.00
2018-06-13T17:03:44.401Z,14.00
2018-06-13T17:06:12.984Z,14.00
2018-06-13T17:08:41.383Z,14.00
2018-06-13T17:11:10.848Z,14.00
2018-06-13T17:13:39.364Z,13.90
2018-06-13T17:16:07.956Z,13.90
2018-06-13T17:18:36.407Z,14.00
2018-06-13T17:21:06.718Z,14.00
2018-06-13T17:23:35.816Z,13.90
2018-06-13T17:26:05.025Z,14.00
2018-06-13T17:28:34.225Z,14.00
2018-06-13T17:31:02.693Z,14.00
2018-06-13T17:33:31.578Z,14.00
2018-06-13T17:36:00.297Z,13.90
2018-06-13T17:38:28.759Z,13.90
2018-06-13T17:40:57.269Z,13.90
2018-06-13T17:43:25.744Z,13.90
2018-06-13T17:45:54.246Z,13.90
2018-06-13T17:48:22.721Z,14.00
2018-06-13T17:50:52.234Z,13.90
2018-06-13T17:53:20.830Z,13.90
2018-06-13T17:55:49.277Z,13.90
2018-06-13T17:58:17.764Z,13.90
2018-06-13T18:00:47.335Z,13.90
2018-06-13T18:03:15.813Z,13.80
2018-06-13T18:05:44.289Z,13.80
2018-06-13T18:08:12.692Z,13.80
2018-06-13T18:10:42.347Z,13.80
2018-06-13T18:13:10.792Z,13.80
2018-06-13T18:15:39.287Z,13.80
2018-06-13T18:18:07.809Z,13.80
2018-06-13T18:20:36.368Z,13.80
2018-06-13T18:23:05.620Z,13.90
2018-06-13T18:25:34.210Z,13.80
2018-06-13T18:28:02.675Z,13.80
2018-06-13T18:30:32.113Z,13.70
2018-06-13T18:33:00.642Z,13.70
2018-06-13T18:35:29.057Z,13.60
2018-06-13T18:37:57.921Z,13.50
2018-06-13T18:40:27.442Z,13.50
2018-06-13T18:42:55.979Z,13.50
2018-06-13T18:45:24.496Z,13.50
2018-06-13T18:47:52.921Z,13.50
2018-06-13T18:50:22.509Z,13.50
2018-06-13T18:52:50.937Z,13.50
2018-06-13T18:55:19.496Z,13.50
2018-06-13T18:57:48.136Z,13.50
2018-06-13T19:00:17.733Z,13.60
2018-06-13T19:02:46.185Z,13.70
2018-06-13T19:05:14.656Z,13.60
2018-06-13T19:07:43.153Z,13.70
2018-06-13T19:10:12.701Z,13.70
2018-06-13T19:12:41.137Z,13.70
2018-06-13T19:15:09.746Z,13.90
2018-06-13T19:17:38.184Z,13.90
2018-06-13T19:20:07.672Z,13.80
2018-06-13T19:22:36.388Z,13.80
2018-06-13T19:25:05.838Z,13.70
2018-06-13T19:27:34.683Z,13.70
2018-06-13T19:30:03.394Z,13.60
2018-06-13T19:32:31.802Z,13.60
2018-06-13T19:35:00.333Z,13.50
2018-06-13T19:37:28.866Z,13.60
2018-06-13T19:39:57.335Z,13.60
2018-06-13T19:42:25.817Z,13.50
2018-06-13T19:44:54.426Z,13.40
2018-06-13T19:47:28.221Z,13.40
2018-06-13T19:49:56.706Z,13.30
2018-06-13T19:53:34.332Z,13.30
2018-06-13T19:56:04.725Z,13.30
2018-06-13T19:58:34.178Z,13.30
2018-06-13T20:01:02.716Z,13.30
2018-06-13T20:03:36.630Z,13.40
2018-06-13T20:06:06.085Z,13.30
2018-06-13T20:08:35.260Z,13.30
2018-06-13T20:11:04.460Z,13.30
2018-06-13T20:13:38.497Z,13.30
2018-06-13T20:16:12.217Z,13.30
2018-06-13T20:18:46.133Z,13.20
2018-06-13T20:23:43.849Z,13.20
2018-06-13T20:26:17.660Z,13.10
2018-06-13T20:28:51.539Z,13.10
2018-06-13T20:31:25.003Z,13.10
2018-06-13T20:33:54.052Z,13.10
2018-06-13T20:36:22.605Z,13.10
2018-06-13T20:38:51.028Z,13.10
2018-06-13T20:41:19.447Z,13.10
2018-06-13T20:43:47.881Z,13.10
2018-06-13T20:46:16.273Z,13.10
2018-06-13T20:48:44.667Z,13.10
2018-06-13T20:51:13.194Z,13.10
2018-06-13T20:53:41.889Z,13.10
2018-06-13T20:56:10.542Z,13.00
2018-06-13T20:58:38.926Z,13.00
2018-06-13T21:01:07.403Z,13.00
2018-06-13T21:03:36.546Z,13.00
2018-06-13T21:06:05.705Z,13.00
2018-06-13T21:08:34.679Z,13.00
2018-06-13T21:11:03.399Z,13.00
2018-06-13T21:13:31.869Z,13.00
2018-06-13T21:16:00.496Z,13.00
2018-06-13T21:18:28.982Z,13.00
2018-06-13T21:20:57.437Z,13.00
2018-06-13T21:23:25.890Z,13.00
2018-06-13T21:25:54.370Z,12.90
2018-06-13T21:28:22.825Z,12.90
2018-06-13T21:30:51.271Z,12.80
2018-06-13T21:33:19.744Z,12.80
2018-06-13T21:35:48.239Z,12.80
2018-06-13T21:38:16.698Z,12.80
2018-06-13T21:40:45.241Z,12.80
2018-06-13T21:43:13.672Z,12.80
2018-06-13T21:45:42.159Z,12.80
2018-06-13T21:48:10.608Z,12.80
2018-06-13T21:50:39.057Z,12.80
2018-06-13T21:53:07.483Z,12.90
2018-06-13T21:55:36.181Z,12.90
2018-06-13T21:58:05.315Z,12.80
2018-06-13T22:00:34.950Z,12.80
2018-06-13T22:03:04.288Z,12.80
2018-06-13T22:05:33.409Z,12.80
2018-06-13T22:08:01.826Z,12.80
2018-06-13T22:10:30.404Z,12.80
2018-06-13T22:12:58.840Z,12.80
2018-06-13T22:15:27.670Z,12.80
2018-06-13T22:17:57.380Z,12.90
2018-06-13T22:20:26.165Z,12.80
2018-06-13T22:22:54.873Z,12.80
2018-06-13T22:25:23.515Z,12.70
2018-06-13T22:27:52.313Z,12.80
2018-06-13T22:32:49.065Z,12.80
2018-06-13T22:35:17.609Z,12.80
2018-06-13T22:40:14.263Z,12.70
2018-06-13T22:42:42.748Z,12.70
2018-06-13T22:45:11.171Z,12.70
2018-06-13T22:47:39.893Z,12.70
2018-06-13T22:50:08.573Z,12.70
2018-06-13T22:55:05.834Z,12.50
2018-06-13T22:57:34.476Z,12.50
2018-06-13T23:00:02.996Z,12.40
2018-06-13T23:02:31.503Z,12.40
2018-06-13T23:04:59.945Z,12.40
2018-06-13T23:07:28.424Z,12.40
2018-06-13T23:09:56.944Z,12.40
2018-06-13T23:12:25.493Z,12.40
2018-06-13T23:14:53.942Z,12.50
2018-06-13T23:17:22.497Z,12.50
2018-06-13T23:19:50.984Z,12.60
2018-06-13T23:22:19.603Z,12.60
2018-06-13T23:24:48.012Z,12.60
2018-06-13T23:27:16.564Z,12.60
2018-06-13T23:29:45.068Z,12.60
2018-06-13T23:32:13.643Z,12.60
2018-06-13T23:34:42.074Z,12.60
2018-06-13T23:37:10.598Z,12.60
2018-06-13T23:39:39.052Z,12.60
2018-06-13T23:42:07.569Z,12.60
2018-06-13T23:44:36.677Z,12.60
2018-06-13T23:47:05.771Z,12.50
2018-06-13T23:49:34.954Z,12.60
2018-06-13T23:52:03.571Z,12.60
2018-06-13T23:54:32.072Z,12.60
2018-06-13T23:57:00.481Z,12.60
2018-06-13T23:59:28.936Z,12.60
